Time,TemperatureF,DewpointF,PressureIn,WindDirection,WindDirectionDegrees,WindSpeedMPH,WindSpeedGustMPH,Humidity,HourlyPrecipIn,Conditions,Clouds,dailyrainin,SoftwareType,DateUTC
2013-04-26 00:01:00,37.0,28.0,-100.00,ENE,66,2.0,3.0,71,-99.99,,,-99.99,,2013-04-26 07:01:00,
2013-04-26 00:11:00,38.0,28.0,-100.00,ESE,108,1.0,2.0,66,-99.99,,,-99.99,,2013-04-26 07:11:00,
2013-04-26 00:22:00,38.0,28.0,-100.00,ENE,69,2.0,4.0,67,-99.99,,,-99.99,,2013-04-26 07:22:00,
2013-04-26 00:31:00,38.0,27.0,-100.00,East,101,1.0,4.0,65,-99.99,,,-99.99,,2013-04-26 07:31:00,
2013-04-26 00:42:00,37.0,27.0,-100.00,East,79,1.0,3.0,68,-99.99,,,-99.99,,2013-04-26 07:42:00,
2013-04-26 00:52:00,38.0,28.0,-100.00,ENE,74,2.0,3.0,66,-99.99,,,-99.99,,2013-04-26 07:52:00,
2013-04-26 01:02:00,38.0,27.0,-100.00,East,84,1.0,3.0,64,-99.99,,,-99.99,,2013-04-26 08:02:00,
2013-04-26 01:11:00,37.0,27.0,-100.00,East,86,1.0,3.0,67,-99.99,,,-99.99,,2013-04-26 08:11:00,
2013-04-26 01:21:00,38.0,27.0,-100.00,East,84,2.0,3.0,64,-99.99,,,-99.99,,2013-04-26 08:21:00,
2013-04-26 01:31:00,38.0,27.0,-100.00,SE,126,0.0,2.0,64,-99.99,,,-99.99,,2013-04-26 08:31:00,
2013-04-26 01:42:00,37.0,27.0,-100.00,ENE,70,1.0,3.0,67,-99.99,,,-99.99,,2013-04-26 08:42:00,
2013-04-26 01:51:00,38.0,27.0,-100.00,East,98,1.0,3.0,64,-99.99,,,-99.99,,2013-04-26 08:51:00,
2013-04-26 02:01:00,37.0,27.0,-100.00,ENE,68,3.0,4.0,66,-99.99,,,-99.99,,2013-04-26 09:01:00,
2013-04-26 02:11:00,38.0,27.0,-100.00,ENE,68,1.0,3.0,64,-99.99,,,-99.99,,2013-04-26 09:11:00,
2013-04-26 02:21:00,36.0,26.0,-100.00,ENE,62,2.0,4.0,67,-99.99,,,-99.99,,2013-04-26 09:21:00,
2013-04-26 02:32:00,36.0,27.0,-100.00,SE,124,1.0,2.0,70,-99.99,,,-99.99,,2013-04-26 09:32:00,
2013-04-26 02:42:00,36.0,27.0,-100.00,ENE,59,2.0,3.0,69,-99.99,,,-99.99,,2013-04-26 09:42:00,
2013-04-26 03:02:00,35.0,26.0,-100.00,ESE,113,1.0,3.0,69,-99.99,,,-99.99,,2013-04-26 10:02:00,
2013-04-26 03:12:00,35.0,26.0,-100.00,NE,53,2.0,3.0,68,-99.99,,,-99.99,,2013-04-26 10:12:00,
2013-04-26 03:22:00,37.0,26.0,-100.00,East,80,2.0,3.0,64,-99.99,,,-99.99,,2013-04-26 10:22:00,
2013-04-26 03:32:00,35.0,26.0,-100.00,SE,127,1.0,2.0,68,-99.99,,,-99.99,,2013-04-26 10:32:00,
2013-04-26 03:42:00,36.0,26.0,-100.00,ENE,73,2.0,3.0,66,-99.99,,,-99.99,,2013-04-26 10:42:00,
2013-04-26 03:52:00,36.0,26.0,-100.00,SE,138,0.0,2.0,67,-99.99,,,-99.99,,2013-04-26 10:52:00,
2013-04-26 04:02:00,36.0,26.0,-100.00,East,79,2.0,3.0,67,-99.99,,,-99.99,,2013-04-26 11:02:00,
2013-04-26 04:11:00,35.0,26.0,-100.00,ESE,109,1.0,3.0,70,-99.99,,,-99.99,,2013-04-26 11:11:00,
2013-04-26 04:21:00,37.0,26.0,-100.00,East,90,1.0,3.0,65,-99.99,,,-99.99,,2013-04-26 11:21:00,
2013-04-26 04:32:00,36.0,26.0,-100.00,ENE,69,2.0,4.0,68,-99.99,,,-99.99,,2013-04-26 11:32:00,
2013-04-26 04:41:00,38.0,27.0,-100.00,ENE,71,2.0,4.0,63,-99.99,,,-99.99,,2013-04-26 11:41:00,
2013-04-26 04:52:00,38.0,26.0,-100.00,East,81,2.0,4.0,62,-99.99,,,-99.99,,2013-04-26 11:52:00,
2013-04-26 05:01:00,38.0,27.0,-100.00,ENE,74,3.0,5.0,63,-99.99,,,-99.99,,2013-04-26 12:01:00,
2013-04-26 05:11:00,39.0,27.0,-100.00,ENE,76,2.0,4.0,61,-99.99,,,-99.99,,2013-04-26 12:11:00,
2013-04-26 05:21:00,40.0,26.0,-100.00,East,80,2.0,6.0,57,-99.99,,,-99.99,,2013-04-26 12:21:00,
2013-04-26 05:32:00,40.0,26.0,-100.00,ENE,68,2.0,5.0,57,-99.99,,,-99.99,,2013-04-26 12:32:00,
2013-04-26 05:41:00,39.0,26.0,-100.00,ENE,69,2.0,4.0,59,-99.99,,,-99.99,,2013-04-26 12:41:00,
2013-04-26 05:52:00,39.0,26.0,-100.00,East,82,2.0,5.0,59,-99.99,,,-99.99,,2013-04-26 12:52:00,
2013-04-26 06:01:00,39.0,25.0,-100.00,ENE,78,2.0,5.0,58,-99.99,,,-99.99,,2013-04-26 13:01:00,
2013-04-26 06:11:00,39.0,26.0,-100.00,ENE,76,2.0,5.0,59,-99.99,,,-99.99,,2013-04-26 13:11:00,
2013-04-26 06:21:00,39.0,25.0,-100.00,ENE,77,3.0,5.0,58,-99.99,,,-99.99,,2013-04-26 13:21:00,
2013-04-26 06:31:00,39.0,26.0,-100.00,East,84,2.0,5.0,59,-99.99,,,-99.99,,2013-04-26 13:31:00,
2013-04-26 06:41:00,39.0,25.0,-100.00,East,80,2.0,6.0,58,-99.99,,,-99.99,,2013-04-26 13:41:00,
2013-04-26 06:52:00,38.0,26.0,-100.00,NE,56,2.0,4.0,61,-99.99,,,-99.99,,2013-04-26 13:52:00,
2013-04-26 07:01:00,38.0,26.0,-100.00,NE,56,2.0,4.0,61,-99.99,,,-99.99,,2013-04-26 14:01:00,
2013-04-26 07:11:00,37.0,26.0,-100.00,ENE,57,1.0,3.0,63,-99.99,,,-99.99,,2013-04-26 14:11:00,
2013-04-26 07:21:00,39.0,26.0,-100.00,ENE,77,2.0,4.0,59,-99.99,,,-99.99,,2013-04-26 14:21:00,
2013-04-26 07:31:00,42.0,27.0,-100.00,East,93,1.0,3.0,56,-99.99,,,-99.99,,2013-04-26 14:31:00,
2013-04-26 07:41:00,43.0,28.0,-100.00,ENE,77,2.0,3.0,54,-99.99,,,-99.99,,2013-04-26 14:41:00,
2013-04-26 07:51:00,43.0,28.0,-100.00,ENE,77,2.0,3.0,54,-99.99,,,-99.99,,2013-04-26 14:51:00,
2013-04-26 08:01:00,43.0,28.0,-100.00,ENE,77,2.0,3.0,54,-99.99,,,-99.99,,2013-04-26 15:01:00,
2013-04-26 08:11:00,50.0,29.0,-100.00,ENE,70,1.0,2.0,44,-99.99,,,-99.99,,2013-04-26 15:11:00,
2013-04-26 08:21:00,54.0,31.0,-100.00,NE,52,1.0,2.0,41,-99.99,,,-99.99,,2013-04-26 15:21:00,
2013-04-26 08:33:00,56.0,33.0,-100.00,ENE,61,1.0,1.0,42,-99.99,,,-99.99,,2013-04-26 15:33:00,
2013-04-26 08:42:00,60.0,36.0,-100.00,NE,49,1.0,1.0,40,-99.99,,,-99.99,,2013-04-26 15:42:00,
2013-04-26 08:52:00,63.0,37.0,-100.00,ENE,69,0.0,1.0,38,-99.99,,,-99.99,,2013-04-26 15:52:00,
2013-04-26 09:03:00,65.0,28.0,-100.00,NE,39,2.0,5.0,25,-99.99,,,-99.99,,2013-04-26 16:03:00,
2013-04-26 09:12:00,66.0,25.0,-100.00,NNE,22,3.0,5.0,21,-99.99,,,-99.99,,2013-04-26 16:12:00,
2013-04-26 09:23:00,66.0,23.0,-100.00,NNE,29,3.0,6.0,19,-99.99,,,-99.99,,2013-04-26 16:23:00,
2013-04-26 09:32:00,66.0,20.0,-100.00,NNW,328,3.0,6.0,17,-99.99,,,-99.99,,2013-04-26 16:32:00,
2013-04-26 09:42:00,67.0,21.0,-100.00,NW,308,2.0,7.0,17,-99.99,,,-99.99,,2013-04-26 16:42:00,
2013-04-26 09:52:00,68.0,19.0,-100.00,SSE,164,1.0,3.0,15,-99.99,,,-99.99,,2013-04-26 16:52:00,
2013-04-26 10:02:00,68.0,19.0,-100.00,SSE,164,1.0,3.0,15,-99.99,,,-99.99,,2013-04-26 17:02:00,
2013-04-26 10:11:00,67.0,21.0,-100.00,SE,125,2.0,7.0,17,-99.99,,,-99.99,,2013-04-26 17:11:00,
2013-04-26 10:21:00,67.0,22.0,-100.00,South,183,3.0,7.0,18,-99.99,,,-99.99,,2013-04-26 17:21:00,
2013-04-26 10:31:00,66.0,21.0,-100.00,WSW,241,6.0,10.0,18,-99.99,,,-99.99,,2013-04-26 17:31:00,
2013-04-26 10:41:00,67.0,22.0,-100.00,WSW,252,4.0,10.0,18,-99.99,,,-99.99,,2013-04-26 17:41:00,
2013-04-26 10:51:00,67.0,25.0,-100.00,SW,214,4.0,8.0,20,-99.99,,,-99.99,,2013-04-26 17:51:00,
2013-04-26 11:02:00,67.0,23.0,-100.00,South,189,6.0,12.0,19,-99.99,,,-99.99,,2013-04-26 18:02:00,
2013-04-26 11:11:00,66.0,21.0,-100.00,SE,144,5.0,12.0,18,-99.99,,,-99.99,,2013-04-26 18:11:00,
2013-04-26 11:22:00,68.0,23.0,-100.00,North,7,2.0,8.0,18,-99.99,,,-99.99,,2013-04-26 18:22:00,
2013-04-26 11:33:00,68.0,23.0,-100.00,South,187,6.0,13.0,18,-99.99,,,-99.99,,2013-04-26 18:33:00,
2013-04-26 11:41:00,67.0,22.0,-100.00,SW,223,5.0,10.0,18,-99.99,,,-99.99,,2013-04-26 18:41:00,
2013-04-26 11:52:00,68.0,25.0,-100.00,South,182,5.0,12.0,20,-99.99,,,-99.99,,2013-04-26 18:52:00,
2013-04-26 12:01:00,68.0,30.0,-100.00,SSW,205,7.0,10.0,24,-99.99,,,-99.99,,2013-04-26 19:01:00,
2013-04-26 12:11:00,68.0,30.0,-100.00,SSW,205,7.0,10.0,24,-99.99,,,-99.99,,2013-04-26 19:11:00,
2013-04-26 12:22:00,67.0,28.0,-100.00,SSE,163,5.0,13.0,23,-99.99,,,-99.99,,2013-04-26 19:22:00,
2013-04-26 12:31:00,67.0,28.0,-100.00,SSE,163,5.0,13.0,23,-99.99,,,-99.99,,2013-04-26 19:31:00,
2013-04-26 12:41:00,67.0,28.0,-100.00,SSE,163,5.0,13.0,23,-99.99,,,-99.99,,2013-04-26 19:41:00,
2013-04-26 12:52:00,68.0,30.0,-100.00,West,278,6.0,12.0,24,-99.99,,,-99.99,,2013-04-26 19:52:00,
2013-04-26 13:00:00,67.0,31.0,-100.00,WNW,293,7.0,13.0,26,-99.99,,,-99.99,,2013-04-26 20:00:00,
2013-04-26 13:02:00,68.0,31.0,-100.00,SW,235,6.0,12.0,25,-99.99,,,-99.99,,2013-04-26 20:02:00,
2013-04-26 13:11:00,68.0,31.0,-100.00,WSW,252,5.0,14.0,25,-99.99,,,-99.99,,2013-04-26 20:11:00,
2013-04-26 13:21:00,68.0,31.0,-100.00,WSW,252,5.0,14.0,25,-99.99,,,-99.99,,2013-04-26 20:21:00,
2013-04-26 13:32:00,68.0,31.0,-100.00,WSW,252,5.0,14.0,25,-99.99,,,-99.99,,2013-04-26 20:32:00,
2013-04-26 13:41:00,67.0,31.0,-100.00,WNW,293,7.0,13.0,26,-99.99,,,-99.99,,2013-04-26 20:41:00,
2013-04-26 13:51:00,67.0,31.0,-100.00,WNW,293,7.0,13.0,26,-99.99,,,-99.99,,2013-04-26 20:51:00,
2013-04-26 14:11:00,68.0,33.0,-100.00,NW,304,5.0,11.0,27,-99.99,,,-99.99,,2013-04-26 21:11:00,
2013-04-26 14:21:00,68.0,33.0,-100.00,WNW,294,5.0,15.0,27,-99.99,,,-99.99,,2013-04-26 21:21:00,
2013-04-26 14:32:00,68.0,33.0,-100.00,WNW,294,5.0,15.0,27,-99.99,,,-99.99,,2013-04-26 21:32:00,
2013-04-26 14:42:00,68.0,31.0,-100.00,WNW,292,5.0,13.0,25,-99.99,,,-99.99,,2013-04-26 21:42:00,
2013-04-26 14:50:00,67.0,35.0,-100.00,NW,308,7.0,17.0,30,-99.99,,,-99.99,,2013-04-26 21:50:00,
2013-04-26 14:52:00,68.0,31.0,-100.00,WNW,292,5.0,13.0,25,-99.99,,,-99.99,,2013-04-26 21:52:00,
2013-04-26 15:02:00,68.0,31.0,-100.00,WNW,292,5.0,13.0,25,-99.99,,,-99.99,,2013-04-26 22:02:00,
2013-04-26 15:12:00,67.0,33.0,-100.00,NW,314,7.0,13.0,28,-99.99,,,-99.99,,2013-04-26 22:12:00,
2013-04-26 15:22:00,67.0,33.0,-100.00,NW,314,7.0,13.0,28,-99.99,,,-99.99,,2013-04-26 22:22:00,
2013-04-26 15:32:00,67.0,35.0,-100.00,NW,308,7.0,17.0,30,-99.99,,,-99.99,,2013-04-26 22:32:00,
2013-04-26 15:42:00,67.0,35.0,-100.00,NW,308,7.0,17.0,30,-99.99,,,-99.99,,2013-04-26 22:42:00,
2013-04-26 16:01:00,68.0,35.0,-100.00,NW,315,6.0,12.0,29,-99.99,,,-99.99,,2013-04-26 23:01:00,
2013-04-26 16:11:00,67.0,35.0,-100.00,NW,307,6.0,13.0,30,-99.99,,,-99.99,,2013-04-26 23:11:00,
2013-04-26 16:21:00,67.0,35.0,-100.00,NW,307,6.0,13.0,30,-99.99,,,-99.99,,2013-04-26 23:21:00,
2013-04-26 16:30:00,66.0,35.0,-100.00,WNW,303,8.0,15.0,32,-99.99,,,-99.99,,2013-04-26 23:30:00,
2013-04-26 16:32:00,67.0,36.0,-100.00,NW,309,6.0,12.0,32,-99.99,,,-99.99,,2013-04-26 23:32:00,
2013-04-26 16:42:00,67.0,36.0,-100.00,WNW,287,6.0,11.0,32,-99.99,,,-99.99,,2013-04-26 23:42:00,
2013-04-26 16:52:00,67.0,36.0,-100.00,WNW,287,6.0,11.0,32,-99.99,,,-99.99,,2013-04-26 23:52:00,
2013-04-26 17:01:00,67.0,37.0,-100.00,NW,325,7.0,18.0,33,-99.99,,,-99.99,,2013-04-27 00:01:00,
2013-04-26 17:11:00,66.0,35.0,-100.00,WNW,303,8.0,15.0,32,-99.99,,,-99.99,,2013-04-27 00:11:00,
2013-04-26 17:21:00,66.0,35.0,-100.00,WNW,303,8.0,15.0,32,-99.99,,,-99.99,,2013-04-27 00:21:00,
2013-04-26 18:01:00,66.0,32.0,-100.00,WNW,298,4.0,10.0,28,-99.99,,,-99.99,,2013-04-27 01:01:00,
2013-04-26 18:11:00,66.0,32.0,-100.00,WNW,298,4.0,10.0,28,-99.99,,,-99.99,,2013-04-27 01:11:00,
2013-04-26 18:21:00,65.0,31.0,-100.00,WNW,302,3.0,8.0,28,-99.99,,,-99.99,,2013-04-27 01:21:00,
2013-04-26 18:32:00,66.0,31.0,-100.00,WNW,282,3.0,8.0,27,-99.99,,,-99.99,,2013-04-27 01:32:00,
2013-04-26 18:41:00,65.0,28.0,-100.00,NW,323,4.0,7.0,25,-99.99,,,-99.99,,2013-04-27 01:41:00,
2013-04-26 18:52:00,65.0,28.0,-100.00,NW,323,4.0,7.0,25,-99.99,,,-99.99,,2013-04-27 01:52:00,
2013-04-26 19:01:00,64.0,26.0,-100.00,NW,313,4.0,9.0,24,-99.99,,,-99.99,,2013-04-27 02:01:00,
2013-04-26 19:11:00,64.0,29.0,-100.00,WNW,302,3.0,7.0,27,-99.99,,,-99.99,,2013-04-27 02:11:00,
2013-04-26 19:22:00,64.0,29.0,-100.00,WNW,301,1.0,4.0,27,-99.99,,,-99.99,,2013-04-27 02:22:00,
2013-04-26 19:32:00,63.0,29.0,-100.00,WNW,298,1.0,4.0,27,-99.99,,,-99.99,,2013-04-27 02:32:00,
2013-04-26 19:42:00,61.0,32.0,-100.00,NW,312,0.0,2.0,33,-99.99,,,-99.99,,2013-04-27 02:42:00,
2013-04-26 19:51:00,58.0,34.0,-100.00,WNW,290,0.0,2.0,40,-99.99,,,-99.99,,2013-04-27 02:51:00,
2013-04-26 20:02:00,55.0,35.0,-100.00,WNW,290,0.0,2.0,47,-99.99,,,-99.99,,2013-04-27 03:02:00,
2013-04-26 20:11:00,51.0,34.0,-100.00,WNW,292,1.0,2.0,52,-99.99,,,-99.99,,2013-04-27 03:11:00,
2013-04-26 20:22:00,50.0,34.0,-100.00,West,269,0.0,1.0,53,-99.99,,,-99.99,,2013-04-27 03:22:00,
2013-04-26 20:32:00,49.0,33.0,-100.00,ESE,123,1.0,3.0,54,-99.99,,,-99.99,,2013-04-27 03:32:00,
2013-04-26 20:42:00,48.0,32.0,-100.00,SE,145,1.0,2.0,54,-99.99,,,-99.99,,2013-04-27 03:42:00,
2013-04-26 20:52:00,48.0,32.0,-100.00,SE,145,1.0,2.0,54,-99.99,,,-99.99,,2013-04-27 03:52:00,
2013-04-26 21:02:00,46.0,31.0,-100.00,ESE,108,1.0,2.0,56,-99.99,,,-99.99,,2013-04-27 04:02:00,
2013-04-26 21:12:00,46.0,30.0,-100.00,ENE,77,2.0,5.0,53,-99.99,,,-99.99,,2013-04-27 04:12:00,
2013-04-26 21:22:00,45.0,29.0,-100.00,SSE,166,1.0,2.0,54,-99.99,,,-99.99,,2013-04-27 04:22:00,
2013-04-26 21:33:00,44.0,28.0,-100.00,East,88,2.0,3.0,54,-99.99,,,-99.99,,2013-04-27 04:33:00,
2013-04-26 21:42:00,46.0,25.0,-100.00,East,96,2.0,3.0,44,-99.99,,,-99.99,,2013-04-27 04:42:00,
2013-04-26 21:52:00,46.0,26.0,-100.00,SE,139,1.0,3.0,45,-99.99,,,-99.99,,2013-04-27 04:52:00,
2013-04-26 22:02:00,44.0,25.0,-100.00,ENE,57,2.0,3.0,47,-99.99,,,-99.99,,2013-04-27 05:02:00,
2013-04-26 22:12:00,45.0,24.0,-100.00,SE,130,1.0,2.0,43,-99.99,,,-99.99,,2013-04-27 05:12:00,
2013-04-26 22:22:00,43.0,25.0,-100.00,East,95,2.0,4.0,48,-99.99,,,-99.99,,2013-04-27 05:22:00,
2013-04-26 22:31:00,44.0,23.0,-100.00,ESE,107,1.0,3.0,44,-99.99,,,-99.99,,2013-04-27 05:31:00,
2013-04-26 22:42:00,44.0,22.0,-100.00,East,87,2.0,3.0,41,-99.99,,,-99.99,,2013-04-27 05:42:00,
2013-04-26 22:52:00,44.0,23.0,-100.00,South,187,0.0,2.0,43,-99.99,,,-99.99,,2013-04-27 05:52:00,
2013-04-26 23:01:00,43.0,23.0,-100.00,ESE,121,0.0,2.0,45,-99.99,,,-99.99,,2013-04-27 06:01:00,
2013-04-26 23:12:00,43.0,23.0,-100.00,ESE,121,0.0,2.0,45,-99.99,,,-99.99,,2013-04-27 06:12:00,
2013-04-26 23:22:00,43.0,24.0,-100.00,SSE,167,2.0,4.0,46,-99.99,,,-99.99,,2013-04-27 06:22:00,
2013-04-26 23:32:00,41.0,24.0,-100.00,NE,39,1.0,3.0,50,-99.99,,,-99.99,,2013-04-27 06:32:00,
2013-04-26 23:51:00,41.0,24.0,-100.00,SE,146,0.0,1.0,51,-99.99,,,-99.99,,2013-04-27 06:51:00,